CAP964 SAVC-SAWR
Flight info
| Callsign | CAP964 |
|---|---|
| Flight time | 0h 54m |
| Altitude | 2500 |
| Route | 4547S06729W 4549S06735W 4600S06746W 4608S06752W DCT 4632S06806W DCT 4826S07002W |
| Aircraft | B350/L-SBGRW/S |
Departure
| Time | 2026-04-21 17:45 |
|---|---|
| Airport | General Enrique Mosconi International Airport (SAVC) |
Arrival
| Time | 2026-04-21 18:40 |
|---|---|
| Airport | Gobernador Gregores Airport (SAWR) |
| Time | Latitude | Longitude | Altitude | Speed | Heading |
|---|---|---|---|---|---|
| 2026-04-21 17:37 | -45.78970 | -67.46789 | 138 ft | 0 kts | 195° |
| 2026-04-21 17:41 | -45.78951 | -67.46811 | 138 ft | 10 kts | 12° |
| 2026-04-21 17:42 | -45.78876 | -67.46802 | 138 ft | 10 kts | 356° |
| 2026-04-21 17:42 | -45.78781 | -67.46797 | 138 ft | 16 kts | 22° |
| 2026-04-21 17:42 | -45.78734 | -67.46626 | 137 ft | 22 kts | 79° |
| 2026-04-21 17:42 | -45.78704 | -67.46397 | 136 ft | 25 kts | 79° |
| 2026-04-21 17:43 | -45.78671 | -67.46145 | 129 ft | 27 kts | 82° |
| 2026-04-21 17:43 | -45.78633 | -67.45864 | 124 ft | 30 kts | 76° |
| 2026-04-21 17:43 | -45.78595 | -67.45581 | 119 ft | 28 kts | 77° |
| 2026-04-21 17:43 | -45.78559 | -67.45311 | 113 ft | 28 kts | 78° |
| 2026-04-21 17:44 | -45.78523 | -67.45037 | 109 ft | 28 kts | 80° |
| 2026-04-21 17:44 | -45.78426 | -67.44850 | 105 ft | 22 kts | 13° |
| 2026-04-21 17:44 | -45.78320 | -67.44871 | 104 ft | 7 kts | 298° |
| 2026-04-21 17:44 | -45.78329 | -67.45088 | 111 ft | 52 kts | 260° |
| 2026-04-21 17:45 | -45.78441 | -67.45963 | 170 ft | 117 kts | 263° |
| 2026-04-21 17:45 | -45.78625 | -67.47339 | 382 ft | 162 kts | 262° |
| 2026-04-21 17:45 | -45.78859 | -67.48978 | 1005 ft | 173 kts | 253° |
| 2026-04-21 17:45 | -45.79369 | -67.50665 | 1448 ft | 193 kts | 251° |
| 2026-04-21 17:46 | -45.79898 | -67.52472 | 1862 ft | 205 kts | 252° |
| 2026-04-21 17:46 | -45.80441 | -67.54403 | 2236 ft | 213 kts | 253° |
| 2026-04-21 17:46 | -45.81020 | -67.56390 | 2549 ft | 219 kts | 245° |
| 2026-04-21 17:46 | -45.82192 | -67.57817 | 2992 ft | 232 kts | 211° |
| 2026-04-21 17:47 | -45.83558 | -67.59017 | 3290 ft | 231 kts | 226° |
| 2026-04-21 17:47 | -45.84755 | -67.60594 | 3366 ft | 234 kts | 227° |
| 2026-04-21 17:47 | -45.85977 | -67.62147 | 3379 ft | 235 kts | 226° |
| 2026-04-21 17:47 | -45.87222 | -67.63672 | 3459 ft | 236 kts | 226° |
| 2026-04-21 17:48 | -45.88058 | -67.64676 | 3469 ft | 237 kts | 225° |
| 2026-04-21 17:48 | -45.89812 | -67.66566 | 3469 ft | 239 kts | 220° |
| 2026-04-21 17:48 | -45.91193 | -67.67891 | 3492 ft | 239 kts | 220° |
| 2026-04-21 17:48 | -45.92575 | -67.69215 | 3495 ft | 239 kts | 220° |
| 2026-04-21 17:49 | -45.93958 | -67.70549 | 3493 ft | 240 kts | 221° |
| 2026-04-21 17:49 | -45.95317 | -67.71936 | 3480 ft | 240 kts | 221° |
| 2026-04-21 17:49 | -45.96675 | -67.73336 | 3444 ft | 240 kts | 220° |
| 2026-04-21 17:49 | -45.98029 | -67.74722 | 3444 ft | 239 kts | 220° |
| 2026-04-21 17:50 | -45.99409 | -67.76048 | 3450 ft | 238 kts | 220° |
| 2026-04-21 17:50 | -46.00801 | -67.77303 | 3485 ft | 241 kts | 218° |
| 2026-04-21 17:50 | -46.02274 | -67.78475 | 3517 ft | 244 kts | 214° |
| 2026-04-21 17:50 | -46.03804 | -67.79552 | 3520 ft | 245 kts | 212° |
| 2026-04-21 17:51 | -46.05340 | -67.80625 | 3501 ft | 245 kts | 214° |
| 2026-04-21 17:51 | -46.06835 | -67.81763 | 3484 ft | 242 kts | 216° |
| 2026-04-21 17:51 | -46.08313 | -67.82901 | 3475 ft | 240 kts | 215° |
| 2026-04-21 17:51 | -46.09792 | -67.83996 | 3481 ft | 238 kts | 214° |
| 2026-04-21 17:52 | -46.11254 | -67.85089 | 3476 ft | 235 kts | 215° |
| 2026-04-21 17:52 | -46.12699 | -67.86182 | 3475 ft | 234 kts | 215° |
| 2026-04-21 17:52 | -46.14149 | -67.87192 | 3497 ft | 235 kts | 211° |
| 2026-04-21 17:52 | -46.15668 | -67.88088 | 3498 ft | 237 kts | 208° |
| 2026-04-21 17:53 | -46.17207 | -67.88950 | 3500 ft | 237 kts | 208° |
| 2026-04-21 17:53 | -46.18747 | -67.89810 | 3486 ft | 237 kts | 208° |
| 2026-04-21 17:53 | -46.20281 | -67.90681 | 3502 ft | 237 kts | 208° |
| 2026-04-21 17:53 | -46.21813 | -67.91576 | 3500 ft | 238 kts | 208° |
| 2026-04-21 17:54 | -46.23353 | -67.92465 | 3492 ft | 239 kts | 208° |
| 2026-04-21 17:54 | -46.24873 | -67.93341 | 3497 ft | 238 kts | 209° |
| 2026-04-21 17:54 | -46.26406 | -67.94236 | 3490 ft | 238 kts | 209° |
| 2026-04-21 17:54 | -46.27937 | -67.95136 | 3491 ft | 237 kts | 210° |
| 2026-04-21 17:55 | -46.29465 | -67.96041 | 3489 ft | 238 kts | 210° |
| 2026-04-21 17:55 | -46.31000 | -67.96928 | 3497 ft | 238 kts | 208° |
| 2026-04-21 17:55 | -46.32536 | -67.97809 | 3488 ft | 237 kts | 209° |
| 2026-04-21 17:55 | -46.34058 | -67.98707 | 3506 ft | 236 kts | 210° |
| 2026-04-21 17:56 | -46.35587 | -67.99607 | 3505 ft | 238 kts | 209° |
| 2026-04-21 17:56 | -46.37124 | -68.00508 | 3499 ft | 239 kts | 209° |
| 2026-04-21 17:56 | -46.38648 | -68.01403 | 3502 ft | 240 kts | 208° |
| 2026-04-21 17:56 | -46.40194 | -68.02308 | 3498 ft | 240 kts | 209° |
| 2026-04-21 17:57 | -46.41744 | -68.03202 | 3502 ft | 240 kts | 208° |
| 2026-04-21 17:57 | -46.43294 | -68.04106 | 3492 ft | 240 kts | 208° |
| 2026-04-21 17:57 | -46.44848 | -68.04998 | 3478 ft | 240 kts | 208° |
| 2026-04-21 17:57 | -46.46388 | -68.05906 | 3480 ft | 238 kts | 209° |
| 2026-04-21 17:58 | -46.47919 | -68.06817 | 3497 ft | 237 kts | 210° |
| 2026-04-21 17:58 | -46.49450 | -68.07717 | 3497 ft | 238 kts | 209° |
| 2026-04-21 17:58 | -46.50964 | -68.08609 | 3491 ft | 239 kts | 210° |
| 2026-04-21 17:58 | -46.52461 | -68.09631 | 3497 ft | 237 kts | 214° |
| 2026-04-21 17:59 | -46.53918 | -68.10751 | 3495 ft | 237 kts | 216° |
| 2026-04-21 17:59 | -46.55357 | -68.11914 | 3494 ft | 236 kts | 218° |
| 2026-04-21 17:59 | -46.56724 | -68.13207 | 3493 ft | 233 kts | 221° |
| 2026-04-21 17:59 | -46.58052 | -68.14557 | 3491 ft | 233 kts | 222° |
| 2026-04-21 18:00 | -46.59380 | -68.15894 | 3495 ft | 232 kts | 222° |
| 2026-04-21 18:00 | -46.60714 | -68.17214 | 3490 ft | 232 kts | 221° |
| 2026-04-21 18:00 | -46.62055 | -68.18523 | 3478 ft | 232 kts | 221° |
| 2026-04-21 18:00 | -46.63377 | -68.19804 | 3486 ft | 232 kts | 221° |
| 2026-04-21 18:01 | -46.64718 | -68.21107 | 3484 ft | 232 kts | 221° |
| 2026-04-21 18:01 | -46.66056 | -68.22424 | 3484 ft | 232 kts | 221° |
| 2026-04-21 18:01 | -46.67396 | -68.23748 | 3485 ft | 233 kts | 221° |
| 2026-04-21 18:01 | -46.68742 | -68.25059 | 3499 ft | 233 kts | 220° |
| 2026-04-21 18:02 | -46.69636 | -68.25933 | 3496 ft | 234 kts | 221° |
| 2026-04-21 18:02 | -46.71450 | -68.27708 | 3484 ft | 235 kts | 221° |
| 2026-04-21 18:02 | -46.72805 | -68.29030 | 3484 ft | 234 kts | 221° |
| 2026-04-21 18:02 | -46.74133 | -68.30340 | 3478 ft | 234 kts | 221° |
| 2026-04-21 18:03 | -46.75480 | -68.31668 | 3465 ft | 233 kts | 221° |
| 2026-04-21 18:03 | -46.76822 | -68.32979 | 3469 ft | 232 kts | 221° |
| 2026-04-21 18:03 | -46.78158 | -68.34290 | 3475 ft | 231 kts | 221° |
| 2026-04-21 18:03 | -46.79490 | -68.35609 | 3477 ft | 232 kts | 221° |
| 2026-04-21 18:04 | -46.80831 | -68.36930 | 3460 ft | 232 kts | 221° |
| 2026-04-21 18:04 | -46.82167 | -68.38250 | 3490 ft | 233 kts | 221° |
| 2026-04-21 18:04 | -46.83057 | -68.39134 | 3492 ft | 234 kts | 221° |
| 2026-04-21 18:04 | -46.84406 | -68.40474 | 3469 ft | 236 kts | 221° |
| 2026-04-21 18:05 | -46.86213 | -68.42246 | 3470 ft | 236 kts | 221° |
| 2026-04-21 18:05 | -46.87576 | -68.43593 | 3466 ft | 236 kts | 221° |
| 2026-04-21 18:05 | -46.88936 | -68.44939 | 3462 ft | 236 kts | 221° |
| 2026-04-21 18:05 | -46.90302 | -68.46283 | 3471 ft | 237 kts | 221° |
| 2026-04-21 18:06 | -46.91670 | -68.47633 | 3467 ft | 238 kts | 221° |
| 2026-04-21 18:06 | -46.93042 | -68.48988 | 3465 ft | 238 kts | 220° |
| 2026-04-21 18:06 | -46.93950 | -68.49892 | 3455 ft | 238 kts | 221° |
| 2026-04-21 18:06 | -46.95317 | -68.51259 | 3458 ft | 238 kts | 221° |
| 2026-04-21 18:07 | -46.96683 | -68.52641 | 3446 ft | 239 kts | 220° |
| 2026-04-21 18:07 | -46.98512 | -68.54440 | 3466 ft | 240 kts | 220° |
| 2026-04-21 18:07 | -46.99903 | -68.55790 | 3465 ft | 241 kts | 220° |
| 2026-04-21 18:07 | -47.01289 | -68.57173 | 3453 ft | 241 kts | 220° |
| 2026-04-21 18:08 | -47.02222 | -68.58115 | 3459 ft | 241 kts | 221° |
| 2026-04-21 18:08 | -47.03595 | -68.59479 | 3469 ft | 241 kts | 221° |
| 2026-04-21 18:08 | -47.04980 | -68.60851 | 3487 ft | 240 kts | 220° |
| 2026-04-21 18:08 | -47.06364 | -68.62221 | 3502 ft | 240 kts | 221° |
| 2026-04-21 18:09 | -47.07733 | -68.63617 | 3487 ft | 240 kts | 221° |
| 2026-04-21 18:09 | -47.09552 | -68.65442 | 3462 ft | 239 kts | 220° |
| 2026-04-21 18:09 | -47.10475 | -68.66375 | 3439 ft | 238 kts | 221° |
| 2026-04-21 18:09 | -47.11848 | -68.67731 | 3451 ft | 237 kts | 220° |
| 2026-04-21 18:10 | -47.13220 | -68.69050 | 3480 ft | 235 kts | 221° |
| 2026-04-21 18:10 | -47.14547 | -68.70403 | 3478 ft | 236 kts | 221° |
| 2026-04-21 18:10 | -47.15903 | -68.71775 | 3514 ft | 238 kts | 220° |
| 2026-04-21 18:10 | -47.17277 | -68.73129 | 3486 ft | 238 kts | 220° |
| 2026-04-21 18:11 | -47.18636 | -68.74507 | 3498 ft | 238 kts | 223° |
| 2026-04-21 18:11 | -47.19992 | -68.75910 | 3493 ft | 239 kts | 221° |
| 2026-04-21 18:11 | -47.21366 | -68.77279 | 3481 ft | 239 kts | 220° |
| 2026-04-21 18:11 | -47.22741 | -68.78638 | 3534 ft | 233 kts | 220° |
| 2026-04-21 18:12 | -47.24034 | -68.79969 | 3791 ft | 223 kts | 221° |
| 2026-04-21 18:12 | -47.25311 | -68.81204 | 4099 ft | 217 kts | 220° |
| 2026-04-21 18:12 | -47.26540 | -68.82403 | 4456 ft | 214 kts | 221° |
| 2026-04-21 18:12 | -47.27766 | -68.83630 | 4729 ft | 212 kts | 223° |
| 2026-04-21 18:13 | -47.28982 | -68.84898 | 4982 ft | 218 kts | 224° |
| 2026-04-21 18:13 | -47.30248 | -68.86226 | 5237 ft | 229 kts | 222° |
| 2026-04-21 18:13 | -47.31593 | -68.87589 | 5387 ft | 240 kts | 222° |
| 2026-04-21 18:13 | -47.32984 | -68.88956 | 5357 ft | 239 kts | 223° |
| 2026-04-21 18:14 | -47.35689 | -68.91706 | 5449 ft | 237 kts | 222° |
| 2026-04-21 18:14 | -47.37048 | -68.93063 | 5569 ft | 242 kts | 221° |
| 2026-04-21 18:14 | -47.38456 | -68.94468 | 5561 ft | 246 kts | 221° |
| 2026-04-21 18:15 | -47.39860 | -68.95923 | 5531 ft | 248 kts | 222° |
| 2026-04-21 18:15 | -47.41275 | -68.97388 | 5531 ft | 249 kts | 221° |
| 2026-04-21 18:15 | -47.42715 | -68.98829 | 5473 ft | 251 kts | 221° |
| 2026-04-21 18:15 | -47.44106 | -69.00223 | 5297 ft | 235 kts | 221° |
| 2026-04-21 18:16 | -47.45460 | -69.01553 | 5131 ft | 235 kts | 222° |
| 2026-04-21 18:16 | -47.46818 | -69.02915 | 4928 ft | 236 kts | 223° |
| 2026-04-21 18:16 | -47.48167 | -69.04305 | 4763 ft | 237 kts | 223° |
| 2026-04-21 18:16 | -47.49505 | -69.05685 | 4659 ft | 238 kts | 223° |
| 2026-04-21 18:17 | -47.50862 | -69.07074 | 4593 ft | 237 kts | 223° |
| 2026-04-21 18:17 | -47.52211 | -69.08446 | 4536 ft | 234 kts | 223° |
| 2026-04-21 18:17 | -47.53540 | -69.09805 | 4512 ft | 231 kts | 223° |
| 2026-04-21 18:17 | -47.54856 | -69.11146 | 4499 ft | 228 kts | 223° |
| 2026-04-21 18:18 | -47.56158 | -69.12472 | 4512 ft | 227 kts | 223° |
| 2026-04-21 18:18 | -47.57455 | -69.13792 | 4499 ft | 226 kts | 223° |
| 2026-04-21 18:18 | -47.58747 | -69.15112 | 4515 ft | 226 kts | 223° |
| 2026-04-21 18:18 | -47.60042 | -69.16438 | 4481 ft | 226 kts | 224° |
| 2026-04-21 18:19 | -47.61306 | -69.17751 | 4498 ft | 225 kts | 223° |
| 2026-04-21 18:19 | -47.62593 | -69.19065 | 4494 ft | 224 kts | 223° |
| 2026-04-21 18:19 | -47.63880 | -69.20375 | 4484 ft | 224 kts | 223° |
| 2026-04-21 18:19 | -47.65160 | -69.21686 | 4491 ft | 223 kts | 224° |
| 2026-04-21 18:20 | -47.66439 | -69.23005 | 4488 ft | 227 kts | 223° |
| 2026-04-21 18:20 | -47.67757 | -69.24365 | 4488 ft | 235 kts | 223° |
| 2026-04-21 18:20 | -47.69120 | -69.25749 | 4484 ft | 239 kts | 222° |
| 2026-04-21 18:20 | -47.70496 | -69.27165 | 4478 ft | 242 kts | 223° |
| 2026-04-21 18:21 | -47.71863 | -69.28581 | 4481 ft | 244 kts | 223° |
| 2026-04-21 18:21 | -47.73264 | -69.30021 | 4480 ft | 247 kts | 222° |
| 2026-04-21 18:21 | -47.74684 | -69.31471 | 4472 ft | 248 kts | 222° |
| 2026-04-21 18:21 | -47.76103 | -69.32919 | 4467 ft | 247 kts | 223° |
| 2026-04-21 18:22 | -47.77514 | -69.34379 | 4478 ft | 247 kts | 223° |
| 2026-04-21 18:22 | -47.78926 | -69.35835 | 4478 ft | 247 kts | 223° |
| 2026-04-21 18:22 | -47.80337 | -69.37297 | 4473 ft | 247 kts | 222° |
| 2026-04-21 18:22 | -47.81751 | -69.38747 | 4459 ft | 248 kts | 222° |
| 2026-04-21 18:23 | -47.83166 | -69.40208 | 4468 ft | 247 kts | 222° |
| 2026-04-21 18:23 | -47.84564 | -69.41650 | 4480 ft | 248 kts | 222° |
| 2026-04-21 18:23 | -47.85973 | -69.43125 | 4475 ft | 249 kts | 223° |
| 2026-04-21 18:23 | -47.87392 | -69.44614 | 4469 ft | 250 kts | 222° |
| 2026-04-21 18:24 | -47.88821 | -69.46097 | 4457 ft | 251 kts | 222° |
| 2026-04-21 18:24 | -47.90260 | -69.47565 | 4466 ft | 251 kts | 222° |
| 2026-04-21 18:24 | -47.91697 | -69.49043 | 4456 ft | 250 kts | 223° |
| 2026-04-21 18:24 | -47.93125 | -69.50525 | 4448 ft | 250 kts | 223° |
| 2026-04-21 18:25 | -47.94548 | -69.52012 | 4469 ft | 250 kts | 222° |
| 2026-04-21 18:25 | -47.95977 | -69.53503 | 4445 ft | 250 kts | 223° |
| 2026-04-21 18:25 | -47.97380 | -69.54981 | 4446 ft | 251 kts | 222° |
| 2026-04-21 18:25 | -47.98817 | -69.56473 | 4457 ft | 252 kts | 222° |
| 2026-04-21 18:26 | -48.00261 | -69.57963 | 4454 ft | 253 kts | 222° |
| 2026-04-21 18:26 | -48.01711 | -69.59468 | 4448 ft | 254 kts | 222° |
| 2026-04-21 18:26 | -48.03157 | -69.60976 | 4478 ft | 253 kts | 221° |
| 2026-04-21 18:26 | -48.04603 | -69.62486 | 4493 ft | 253 kts | 222° |
| 2026-04-21 18:27 | -48.06044 | -69.64008 | 4481 ft | 254 kts | 222° |
| 2026-04-21 18:27 | -48.07486 | -69.65537 | 4497 ft | 254 kts | 223° |
| 2026-04-21 18:27 | -48.08950 | -69.67037 | 4508 ft | 256 kts | 222° |
| 2026-04-21 18:27 | -48.10399 | -69.68530 | 4513 ft | 257 kts | 223° |
| 2026-04-21 18:28 | -48.11862 | -69.70070 | 4496 ft | 257 kts | 223° |
| 2026-04-21 18:28 | -48.13297 | -69.71636 | 4434 ft | 254 kts | 224° |
| 2026-04-21 18:28 | -48.14735 | -69.73155 | 4457 ft | 252 kts | 222° |
| 2026-04-21 18:28 | -48.16196 | -69.74613 | 4479 ft | 252 kts | 221° |
| 2026-04-21 18:29 | -48.17644 | -69.76091 | 4493 ft | 252 kts | 223° |
| 2026-04-21 18:29 | -48.19064 | -69.77628 | 4501 ft | 252 kts | 224° |
| 2026-04-21 18:29 | -48.20495 | -69.79175 | 4499 ft | 254 kts | 224° |
| 2026-04-21 18:29 | -48.21945 | -69.80709 | 4501 ft | 256 kts | 224° |
| 2026-04-21 18:30 | -48.23407 | -69.82242 | 4485 ft | 257 kts | 223° |
| 2026-04-21 18:30 | -48.24842 | -69.83758 | 4490 ft | 256 kts | 223° |
| 2026-04-21 18:30 | -48.26295 | -69.85300 | 4497 ft | 256 kts | 223° |
| 2026-04-21 18:30 | -48.27761 | -69.86812 | 4505 ft | 256 kts | 222° |
| 2026-04-21 18:31 | -48.29113 | -69.88237 | 4497 ft | 257 kts | 223° |
| 2026-04-21 18:31 | -48.30571 | -69.89785 | 4486 ft | 257 kts | 223° |
| 2026-04-21 18:31 | -48.32032 | -69.91326 | 4490 ft | 257 kts | 223° |
| 2026-04-21 18:31 | -48.33489 | -69.92864 | 4480 ft | 256 kts | 223° |
| 2026-04-21 18:32 | -48.34930 | -69.94423 | 4479 ft | 254 kts | 223° |
| 2026-04-21 18:32 | -48.36373 | -69.95958 | 4494 ft | 255 kts | 222° |
| 2026-04-21 18:32 | -48.37807 | -69.97453 | 4515 ft | 254 kts | 223° |
| 2026-04-21 18:32 | -48.39250 | -69.98993 | 4502 ft | 254 kts | 223° |
| 2026-04-21 18:33 | -48.40696 | -70.00521 | 4507 ft | 254 kts | 223° |
| 2026-04-21 18:33 | -48.42232 | -70.01894 | 4498 ft | 261 kts | 212° |
| 2026-04-21 18:33 | -48.43909 | -70.02899 | 4496 ft | 264 kts | 207° |
| 2026-04-21 18:33 | -48.45666 | -70.03835 | 4485 ft | 265 kts | 206° |
| 2026-04-21 18:34 | -48.47414 | -70.04709 | 4484 ft | 266 kts | 203° |
| 2026-04-21 18:34 | -48.49218 | -70.05384 | 4481 ft | 268 kts | 198° |
| 2026-04-21 18:34 | -48.51031 | -70.05905 | 4487 ft | 269 kts | 197° |
| 2026-04-21 18:34 | -48.52862 | -70.06447 | 4500 ft | 268 kts | 198° |
| 2026-04-21 18:35 | -48.54093 | -70.06846 | 4492 ft | 268 kts | 198° |
| 2026-04-21 18:35 | -48.56508 | -70.07659 | 4489 ft | 269 kts | 198° |
| 2026-04-21 18:35 | -48.58331 | -70.08266 | 4472 ft | 268 kts | 198° |
| 2026-04-21 18:35 | -48.60157 | -70.08869 | 4314 ft | 269 kts | 198° |
| 2026-04-21 18:36 | -48.61934 | -70.09459 | 4115 ft | 255 kts | 199° |
| 2026-04-21 18:36 | -48.63627 | -70.10031 | 4038 ft | 243 kts | 199° |
| 2026-04-21 18:36 | -48.65249 | -70.10556 | 4019 ft | 234 kts | 200° |
| 2026-04-21 18:36 | -48.66562 | -70.11650 | 3928 ft | 212 kts | 236° |
| 2026-04-21 18:37 | -48.67480 | -70.13396 | 3685 ft | 213 kts | 241° |
| 2026-04-21 18:37 | -48.68338 | -70.15208 | 3579 ft | 211 kts | 243° |
| 2026-04-21 18:37 | -48.69171 | -70.17003 | 3533 ft | 206 kts | 244° |
| 2026-04-21 18:37 | -48.69971 | -70.18770 | 3510 ft | 202 kts | 244° |
| 2026-04-21 18:38 | -48.70796 | -70.20530 | 3313 ft | 211 kts | 235° |
| 2026-04-21 18:38 | -48.72117 | -70.21540 | 3086 ft | 222 kts | 192° |
| 2026-04-21 18:38 | -48.73658 | -70.21569 | 2868 ft | 221 kts | 183° |
| 2026-04-21 18:38 | -48.75159 | -70.21510 | 2620 ft | 216 kts | 182° |
| 2026-04-21 18:39 | -48.76546 | -70.21044 | 2543 ft | 188 kts | 139° |
| 2026-04-21 18:39 | -48.77358 | -70.19687 | 1992 ft | 163 kts | 116° |
| 2026-04-21 18:39 | -48.77776 | -70.18273 | 1638 ft | 132 kts | 99° |
| 2026-04-21 18:39 | -48.77986 | -70.17022 | 1326 ft | 117 kts | 92° |
| 2026-04-21 18:40 | -48.78115 | -70.16044 | 1194 ft | 51 kts | 105° |
| 2026-04-21 18:40 | -48.78131 | -70.15944 | 1191 ft | 2 kts | 73° |
| 2026-04-21 18:40 | -48.78121 | -70.15940 | 1191 ft | 2 kts | 313° |
| 2026-04-21 18:40 | -48.78146 | -70.16074 | 1193 ft | 15 kts | 250° |
| 2026-04-21 18:41 | -48.78225 | -70.16176 | 1190 ft | 13 kts | 177° |
| 2026-04-21 18:41 | -48.78268 | -70.16208 | 1190 ft | 0 kts | 222° |